sensor_id;sensor_type;location;lat;lon;timestamp;pressure;altitude;pressure_sealevel;temperature;humidity
14885;BME280;7534;50.762;7.000;2023-04-01T00:00:58;88035.88;;;-143.16;57.11
14885;BME280;7534;50.762;7.000;2023-04-01T00:03:25;88035.88;;;-143.16;57.24
14885;BME280;7534;50.762;7.000;2023-04-01T00:05:53;88041.94;;;-143.16;56.66
14885;BME280;7534;50.762;7.000;2023-04-01T00:08:19;88058.06;;;-143.16;57.40
14885;BME280;7534;50.762;7.000;2023-04-01T00:10:45;88015.69;;;-143.16;57.48
14885;BME280;7534;50.762;7.000;2023-04-01T00:13:11;88027.78;;;-143.16;57.43
14885;BME280;7534;50.762;7.000;2023-04-01T00:15:37;88078.25;;;-143.16;57.43
14885;BME280;7534;50.762;7.000;2023-04-01T00:18:03;88076.25;;;-143.16;57.34
14885;BME280;7534;50.762;7.000;2023-04-01T00:20:30;88064.13;;;-143.16;57.02
14885;BME280;7534;50.762;7.000;2023-04-01T00:22:56;88060.09;;;-143.16;57.37
14885;BME280;7534;50.762;7.000;2023-04-01T00:25:22;88080.28;;;-143.16;57.89
14885;BME280;7534;50.762;7.000;2023-04-01T00:27:48;88094.41;;;-143.16;57.96
14885;BME280;7534;50.762;7.000;2023-04-01T00:30:15;88080.28;;;-143.16;58.57
14885;BME280;7534;50.762;7.000;2023-04-01T00:32:52;88080.28;;;-143.16;58.07
14885;BME280;7534;50.762;7.000;2023-04-01T00:35:19;88060.09;;;-143.16;57.81
14885;BME280;7534;50.762;7.000;2023-04-01T00:37:45;88039.91;;;-143.16;57.73
14885;BME280;7534;50.762;7.000;2023-04-01T00:40:36;88072.19;;;-143.16;57.77
14885;BME280;7534;50.762;7.000;2023-04-01T00:43:03;88041.94;;;-143.16;57.75
14885;BME280;7534;50.762;7.000;2023-04-01T00:45:39;88076.25;;;-143.16;58.08
14885;BME280;7534;50.762;7.000;2023-04-01T00:48:23;88052.00;;;-143.16;57.92
14885;BME280;7534;50.762;7.000;2023-04-01T00:51:03;88076.25;;;-143.16;58.21
14885;BME280;7534;50.762;7.000;2023-04-01T00:53:31;88080.28;;;-143.16;57.94
14885;BME280;7534;50.762;7.000;2023-04-01T00:56:10;88054.03;;;-143.16;57.61
14885;BME280;7534;50.762;7.000;2023-04-01T00:58:43;88052.00;;;-143.16;57.64
14885;BME280;7534;50.762;7.000;2023-04-01T01:01:12;88064.13;;;-143.16;57.59
14885;BME280;7534;50.762;7.000;2023-04-01T01:03:38;88031.84;;;-143.16;58.18
14885;BME280;7534;50.762;7.000;2023-04-01T01:06:29;88056.06;;;-143.16;58.00
14885;BME280;7534;50.762;7.000;2023-04-01T01:09:45;88102.47;;;-143.16;58.04
14885;BME280;7534;50.762;7.000;2023-04-01T01:12:24;88078.25;;;-143.16;58.22
14885;BME280;7534;50.762;7.000;2023-04-01T01:15:26;88092.38;;;-143.16;57.99
14885;BME280;7534;50.762;7.000;2023-04-01T01:18:22;88108.53;;;-143.16;58.01
14885;BME280;7534;50.762;7.000;2023-04-01T01:24:37;88068.16;;;-143.16;57.70
14885;BME280;7534;50.762;7.000;2023-04-01T01:27:17;88082.28;;;-143.16;57.45
14885;BME280;7534;50.762;7.000;2023-04-01T01:29:59;88086.34;;;-143.16;57.65
14885;BME280;7534;50.762;7.000;2023-04-01T01:32:32;88017.69;;;-143.16;57.59
14885;BME280;7534;50.762;7.000;2023-04-01T01:35:38;88072.19;;;-143.16;56.90
14885;BME280;7534;50.762;7.000;2023-04-01T01:38:15;88033.84;;;-143.16;57.01
14885;BME280;7534;50.762;7.000;2023-04-01T01:40:46;88088.34;;;-143.16;57.20
14885;BME280;7534;50.762;7.000;2023-04-01T01:43:18;88054.03;;;-143.16;57.17
14885;BME280;7534;50.762;7.000;2023-04-01T01:45:50;88050.00;;;-143.16;57.34
14885;BME280;7534;50.762;7.000;2023-04-01T01:48:19;88082.28;;;-143.16;57.39
14885;BME280;7534;50.762;7.000;2023-04-01T01:50:46;88035.88;;;-143.16;57.68
14885;BME280;7534;50.762;7.000;2023-04-01T01:53:13;88072.19;;;-143.16;57.34
14885;BME280;7534;50.762;7.000;2023-04-01T01:55:45;88076.25;;;-143.16;57.34
14885;BME280;7534;50.762;7.000;2023-04-01T01:58:22;88060.09;;;-143.16;56.86
14885;BME280;7534;50.762;7.000;2023-04-01T02:00:59;88060.09;;;-143.16;56.55
14885;BME280;7534;50.762;7.000;2023-04-01T02:03:31;88068.16;;;-143.16;56.94
14885;BME280;7534;50.762;7.000;2023-04-01T02:06:01;88092.38;;;-143.16;56.89
14885;BME280;7534;50.762;7.000;2023-04-01T02:08:35;88074.22;;;-143.16;56.73
14885;BME280;7534;50.762;7.000;2023-04-01T02:11:46;88064.13;;;-143.16;56.83
14885;BME280;7534;50.762;7.000;2023-04-01T02:14:21;88056.06;;;-143.16;57.02
14885;BME280;7534;50.762;7.000;2023-04-01T02:17:11;88092.38;;;-143.16;57.16
14885;BME280;7534;50.762;7.000;2023-04-01T02:20:06;88068.16;;;-143.16;57.47
14885;BME280;7534;50.762;7.000;2023-04-01T02:22:40;88043.94;;;-143.16;57.86
14885;BME280;7534;50.762;7.000;2023-04-01T02:25:16;88108.53;;;-143.16;57.84
14885;BME280;7534;50.762;7.000;2023-04-01T02:27:44;88104.50;;;-143.16;58.31
14885;BME280;7534;50.762;7.000;2023-04-01T02:30:13;88084.31;;;-143.16;58.17
14885;BME280;7534;50.762;7.000;2023-04-01T02:32:40;88082.28;;;-143.16;58.84
14885;BME280;7534;50.762;7.000;2023-04-01T02:35:10;88070.19;;;-143.16;58.83
14885;BME280;7534;50.762;7.000;2023-04-01T02:37:38;88124.69;;;-143.16;59.30
14885;BME280;7534;50.762;7.000;2023-04-01T02:40:10;88126.72;;;-143.16;60.01
14885;BME280;7534;50.762;7.000;2023-04-01T02:42:36;88090.38;;;-143.16;60.34
14885;BME280;7534;50.762;7.000;2023-04-01T02:45:03;88100.47;;;-143.16;60.58
14885;BME280;7534;50.762;7.000;2023-04-01T02:47:29;88130.75;;;-143.16;60.88
14885;BME280;7534;50.762;7.000;2023-04-01T02:49:55;88136.78;;;-143.16;60.58
14885;BME280;7534;50.762;7.000;2023-04-01T02:52:30;88090.38;;;-143.16;60.73
14885;BME280;7534;50.762;7.000;2023-04-01T02:54:56;88114.59;;;-143.16;61.41
14885;BME280;7534;50.762;7.000;2023-04-01T02:57:23;88128.72;;;-143.16;61.42
14885;BME280;7534;50.762;7.000;2023-04-01T02:59:49;88112.56;;;-143.16;61.99
14885;BME280;7534;50.762;7.000;2023-04-01T03:02:16;88134.78;;;-143.16;62.33
14885;BME280;7534;50.762;7.000;2023-04-01T03:04:42;88108.53;;;-143.16;62.55
14885;BME280;7534;50.762;7.000;2023-04-01T03:07:08;88171.13;;;-143.16;62.86
14885;BME280;7534;50.762;7.000;2023-04-01T03:09:37;88179.19;;;-143.16;63.65
14885;BME280;7534;50.762;7.000;2023-04-01T03:12:03;88159.00;;;-143.16;64.57
14885;BME280;7534;50.762;7.000;2023-04-01T03:14:29;88159.00;;;-143.16;64.50
14885;BME280;7534;50.762;7.000;2023-04-01T03:16:55;88161.03;;;-143.16;64.81
14885;BME280;7534;50.762;7.000;2023-04-01T03:19:21;88173.13;;;-143.16;64.66
14885;BME280;7534;50.762;7.000;2023-04-01T03:21:46;88163.03;;;-143.16;64.41
14885;BME280;7534;50.762;7.000;2023-04-01T03:24:12;88181.22;;;-143.16;64.56
14885;BME280;7534;50.762;7.000;2023-04-01T03:26:38;88201.41;;;-143.16;63.67
14885;BME280;7534;50.762;7.000;2023-04-01T03:29:04;88140.84;;;-143.16;63.58
14885;BME280;7534;50.762;7.000;2023-04-01T03:31:30;88183.22;;;-143.16;63.76
14885;BME280;7534;50.762;7.000;2023-04-01T03:33:56;88118.63;;;-143.16;63.97
14885;BME280;7534;50.762;7.000;2023-04-01T03:36:22;88159.00;;;-143.16;63.71
14885;BME280;7534;50.762;7.000;2023-04-01T03:38:47;88187.25;;;-143.16;62.90
14885;BME280;7534;50.762;7.000;2023-04-01T03:41:15;88144.88;;;-143.16;63.09
14885;BME280;7534;50.762;7.000;2023-04-01T03:43:42;88140.84;;;-143.16;63.12
14885;BME280;7534;50.762;7.000;2023-04-01T03:46:07;88185.25;;;-143.16;62.49
14885;BME280;7534;50.762;7.000;2023-04-01T03:48:33;88140.84;;;-143.16;62.60
14885;BME280;7534;50.762;7.000;2023-04-01T03:50:59;88148.91;;;-143.16;62.28
14885;BME280;7534;50.762;7.000;2023-04-01T03:53:24;88209.47;;;-143.16;62.03
14885;BME280;7534;50.762;7.000;2023-04-01T03:55:50;88140.84;;;-143.16;61.91
14885;BME280;7534;50.762;7.000;2023-04-01T03:58:19;88148.91;;;-143.16;62.22
14885;BME280;7534;50.762;7.000;2023-04-01T04:00:45;88173.13;;;-143.16;61.93
14885;BME280;7534;50.762;7.000;2023-04-01T04:03:10;88161.03;;;-143.16;61.99
14885;BME280;7534;50.762;7.000;2023-04-01T04:05:36;88148.91;;;-143.16;61.97
14885;BME280;7534;50.762;7.000;2023-04-01T04:08:02;88112.56;;;-143.16;61.99
14885;BME280;7534;50.762;7.000;2023-04-01T04:10:28;88116.63;;;-143.16;61.55
14885;BME280;7534;50.762;7.000;2023-04-01T04:12:55;88130.75;;;-143.16;61.42
14885;BME280;7534;50.762;7.000;2023-04-01T04:15:21;88102.47;;;-143.16;61.40
14885;BME280;7534;50.762;7.000;2023-04-01T04:17:48;88120.66;;;-143.16;61.58
14885;BME280;7534;50.762;7.000;2023-04-01T04:20:13;88136.78;;;-143.16;61.12
14885;BME280;7534;50.762;7.000;2023-04-01T04:22:40;88110.56;;;-143.16;61.11
14885;BME280;7534;50.762;7.000;2023-04-01T04:25:06;88229.66;;;-143.16;61.37
14885;BME280;7534;50.762;7.000;2023-04-01T04:27:33;88142.84;;;-143.16;61.51
14885;BME280;7534;50.762;7.000;2023-04-01T04:29:59;88211.50;;;-143.16;61.83
14885;BME280;7534;50.762;7.000;2023-04-01T04:32:24;88165.06;;;-143.16;61.11
14885;BME280;7534;50.762;7.000;2023-04-01T04:34:50;88165.06;;;-143.16;61.58
14885;BME280;7534;50.762;7.000;2023-04-01T04:37:16;88142.84;;;-143.16;61.81
14885;BME280;7534;50.762;7.000;2023-04-01T04:39:42;88165.06;;;-143.16;62.12
14885;BME280;7534;50.762;7.000;2023-04-01T04:42:07;88173.13;;;-143.16;62.47
14885;BME280;7534;50.762;7.000;2023-04-01T04:44:33;88138.81;;;-143.16;62.73
14885;BME280;7534;50.762;7.000;2023-04-01T04:46:58;88148.91;;;-143.16;62.42
14885;BME280;7534;50.762;7.000;2023-04-01T04:49:25;88138.81;;;-143.16;63.11
14885;BME280;7534;50.762;7.000;2023-04-01T04:51:51;88108.53;;;-143.16;63.28
14885;BME280;7534;50.762;7.000;2023-04-01T04:54:17;88167.06;;;-143.16;63.42
14885;BME280;7534;50.762;7.000;2023-04-01T04:56:43;88146.88;;;-143.16;63.99
14885;BME280;7534;50.762;7.000;2023-04-01T04:59:10;88154.97;;;-143.16;64.69
14885;BME280;7534;50.762;7.000;2023-04-01T05:01:35;88173.13;;;-143.16;65.04
14885;BME280;7534;50.762;7.000;2023-04-01T05:04:01;88213.50;;;-143.16;64.84
14885;BME280;7534;50.762;7.000;2023-04-01T05:06:28;88185.25;;;-143.16;64.48
14885;BME280;7534;50.762;7.000;2023-04-01T05:08:55;88173.13;;;-143.16;64.90
14885;BME280;7534;50.762;7.000;2023-04-01T05:11:24;88165.06;;;-143.16;65.06
14885;BME280;7534;50.762;7.000;2023-04-01T05:13:51;88122.66;;;-143.16;65.15
14885;BME280;7534;50.762;7.000;2023-04-01T05:16:20;88124.69;;;-143.16;65.24
14885;BME280;7534;50.762;7.000;2023-04-01T05:18:47;88134.78;;;-143.16;65.86
14885;BME280;7534;50.762;7.000;2023-04-01T05:21:14;88191.31;;;-143.16;66.31
14885;BME280;7534;50.762;7.000;2023-04-01T05:23:40;88181.22;;;-143.16;66.77
14885;BME280;7534;50.762;7.000;2023-04-01T05:26:12;88169.09;;;-143.16;67.39
14885;BME280;7534;50.762;7.000;2023-04-01T05:28:39;88191.31;;;-143.16;67.90
14885;BME280;7534;50.762;7.000;2023-04-01T05:31:07;88199.38;;;-143.16;68.20
14885;BME280;7534;50.762;7.000;2023-04-01T05:33:33;88185.25;;;-143.16;68.77
14885;BME280;7534;50.762;7.000;2023-04-01T05:36:14;88152.94;;;-143.16;70.23
14885;BME280;7534;50.762;7.000;2023-04-01T05:38:41;88233.69;;;-143.16;70.40
14885;BME280;7534;50.762;7.000;2023-04-01T05:41:15;88237.72;;;-143.16;71.50
14885;BME280;7534;50.762;7.000;2023-04-01T05:43:41;88219.56;;;-143.16;72.14
14885;BME280;7534;50.762;7.000;2023-04-01T05:46:08;88181.22;;;-143.16;72.66
14885;BME280;7534;50.762;7.000;2023-04-01T05:48:34;88278.09;;;-143.16;72.58
14885;BME280;7534;50.762;7.000;2023-04-01T05:51:01;88219.56;;;-143.16;73.17
14885;BME280;7534;50.762;7.000;2023-04-01T05:53:27;88217.53;;;-143.16;72.88
14885;BME280;7534;50.762;7.000;2023-04-01T05:55:53;88253.88;;;-143.16;72.97
14885;BME280;7534;50.762;7.000;2023-04-01T05:58:18;88179.19;;;-143.16;73.16
14885;BME280;7534;50.762;7.000;2023-04-01T06:00:44;88243.78;;;-143.16;72.62
14885;BME280;7534;50.762;7.000;2023-04-01T06:03:09;88219.56;;;-143.16;72.59
14885;BME280;7534;50.762;7.000;2023-04-01T06:05:43;88189.28;;;-143.16;72.42
14885;BME280;7534;50.762;7.000;2023-04-01T06:08:16;88205.44;;;-143.16;72.42
14885;BME280;7534;50.762;7.000;2023-04-01T06:19:32;88181.22;;;-143.16;73.82
14885;BME280;7534;50.762;7.000;2023-04-01T06:22:34;88205.44;;;-143.16;74.54
14885;BME280;7534;50.762;7.000;2023-04-01T06:28:43;88233.69;;;-143.16;74.48
14885;BME280;7534;50.762;7.000;2023-04-01T06:31:38;88247.81;;;-143.16;74.22
14885;BME280;7534;50.762;7.000;2023-04-01T06:35:03;88179.19;;;-143.16;74.42
14885;BME280;7534;50.762;7.000;2023-04-01T06:40:40;88146.88;;;-143.16;72.65
14885;BME280;7534;50.762;7.000;2023-04-01T06:46:44;88144.88;;;-143.16;72.44
14885;BME280;7534;50.762;7.000;2023-04-01T06:53:37;88128.72;;;-143.16;72.28
14885;BME280;7534;50.762;7.000;2023-04-01T06:56:04;88132.75;;;-143.16;72.25
14885;BME280;7534;50.762;7.000;2023-04-01T06:58:51;88098.44;;;-143.16;72.12
14885;BME280;7534;50.762;7.000;2023-04-01T07:01:27;88050.00;;;-143.16;72.09
14885;BME280;7534;50.762;7.000;2023-04-01T07:04:09;88054.03;;;-143.16;71.15
14885;BME280;7534;50.762;7.000;2023-04-01T07:06:59;88074.22;;;-143.16;69.87
14885;BME280;7534;50.762;7.000;2023-04-01T07:09:36;88039.91;;;-143.16;69.77
14885;BME280;7534;50.762;7.000;2023-04-01T07:12:15;88056.06;;;-143.16;69.82
14885;BME280;7534;50.762;7.000;2023-04-01T07:14:47;88037.88;;;-143.16;69.69
14885;BME280;7534;50.762;7.000;2023-04-01T07:17:21;88005.59;;;-143.16;69.15
14885;BME280;7534;50.762;7.000;2023-04-01T07:20:24;88027.78;;;-143.16;70.03
14885;BME280;7534;50.762;7.000;2023-04-01T07:22:57;88029.81;;;-143.16;69.69
14885;BME280;7534;50.762;7.000;2023-04-01T07:26:00;88019.72;;;-143.16;68.88
14885;BME280;7534;50.762;7.000;2023-04-01T07:28:32;87993.47;;;-143.16;69.23
14885;BME280;7534;50.762;7.000;2023-04-01T07:31:13;87971.28;;;-143.16;68.72
14885;BME280;7534;50.762;7.000;2023-04-01T07:34:12;88027.78;;;-143.16;68.56
14885;BME280;7534;50.762;7.000;2023-04-01T07:37:16;88039.91;;;-143.16;68.80
14885;BME280;7534;50.762;7.000;2023-04-01T07:43:32;88033.84;;;-143.16;69.06
14885;BME280;7534;50.762;7.000;2023-04-01T07:50:20;88023.75;;;-143.16;68.52
14885;BME280;7534;50.762;7.000;2023-04-01T07:59:29;87975.31;;;-143.16;68.49
14885;BME280;7534;50.762;7.000;2023-04-01T08:10:46;87977.31;;;-143.16;68.48
14885;BME280;7534;50.762;7.000;2023-04-01T08:13:44;87995.50;;;-143.16;68.09
14885;BME280;7534;50.762;7.000;2023-04-01T08:19:21;88017.69;;;-143.16;68.41
14885;BME280;7534;50.762;7.000;2023-04-01T08:21:52;87987.44;;;-143.16;68.66
14885;BME280;7534;50.762;7.000;2023-04-01T08:24:42;88001.56;;;-143.16;67.95
14885;BME280;7534;50.762;7.000;2023-04-01T08:27:31;88003.56;;;-143.16;67.23
14885;BME280;7534;50.762;7.000;2023-04-01T08:36:15;88068.16;;;-143.16;67.90
14885;BME280;7534;50.762;7.000;2023-04-01T08:38:52;87973.28;;;-143.16;68.78
14885;BME280;7534;50.762;7.000;2023-04-01T08:44:43;88074.22;;;-143.16;68.03
14885;BME280;7534;50.762;7.000;2023-04-01T08:47:52;88039.91;;;-143.16;69.36
14885;BME280;7534;50.762;7.000;2023-04-01T08:50:40;88009.63;;;-143.16;68.80
14885;BME280;7534;50.762;7.000;2023-04-01T08:56:36;88039.91;;;-143.16;70.05
14885;BME280;7534;50.762;7.000;2023-04-01T09:05:59;88023.75;;;-143.16;70.41
14885;BME280;7534;50.762;7.000;2023-04-01T09:14:42;87953.09;;;-143.16;69.65
14885;BME280;7534;50.762;7.000;2023-04-01T09:21:02;87904.66;;;-143.16;68.16
14885;BME280;7534;50.762;7.000;2023-04-01T09:23:55;87979.34;;;-143.16;69.86
14885;BME280;7534;50.762;7.000;2023-04-01T09:27:03;87975.31;;;-143.16;70.23
14885;BME280;7534;50.762;7.000;2023-04-01T09:35:48;88007.59;;;-143.16;68.14
14885;BME280;7534;50.762;7.000;2023-04-01T09:38:23;87920.81;;;-143.16;67.61
14885;BME280;7534;50.762;7.000;2023-04-01T09:41:15;87892.56;;;-143.16;67.53
14885;BME280;7534;50.762;7.000;2023-04-01T09:44:14;87910.72;;;-143.16;65.60
14885;BME280;7534;50.762;7.000;2023-04-01T09:50:57;87886.50;;;-143.16;63.20
14885;BME280;7534;50.762;7.000;2023-04-01T10:00:02;87880.44;;;-143.16;61.65
14885;BME280;7534;50.762;7.000;2023-04-01T10:29:29;87819.88;;;-143.16;59.15
14885;BME280;7534;50.762;7.000;2023-04-01T10:31:46;87777.50;;;-143.16;59.10
14885;BME280;7534;50.762;7.000;2023-04-01T10:34:35;87763.38;;;-143.16;58.75
14885;BME280;7534;50.762;7.000;2023-04-01T10:37:51;87658.41;;;-143.16;58.10
14885;BME280;7534;50.762;7.000;2023-04-01T10:41:03;87716.94;;;-143.16;59.42
14885;BME280;7534;50.762;7.000;2023-04-01T10:53:31;87797.69;;;-143.16;60.27
14885;BME280;7534;50.762;7.000;2023-04-01T11:04:47;87757.31;;;-143.16;59.77
14885;BME280;7534;50.762;7.000;2023-04-01T11:13:53;87690.72;;;-143.16;57.99
14885;BME280;7534;50.762;7.000;2023-04-01T11:22:44;87811.81;;;-143.16;61.92
14885;BME280;7534;50.762;7.000;2023-04-01T11:25:41;87882.47;;;-143.16;62.45
14885;BME280;7534;50.762;7.000;2023-04-01T11:31:25;87832.00;;;-143.16;63.11
14885;BME280;7534;50.762;7.000;2023-04-01T11:34:28;87848.16;;;-143.16;63.25
14885;BME280;7534;50.762;7.000;2023-04-01T11:43:45;87882.47;;;-143.16;64.94
14885;BME280;7534;50.762;7.000;2023-04-01T11:46:39;87894.56;;;-143.16;65.10
14885;BME280;7534;50.762;7.000;2023-04-01T12:04:44;87874.38;;;-143.16;63.64
14885;BME280;7534;50.762;7.000;2023-04-01T12:07:53;87854.19;;;-143.16;63.34
14885;BME280;7534;50.762;7.000;2023-04-01T12:19:32;87799.69;;;-143.16;61.45
14885;BME280;7534;50.762;7.000;2023-04-01T12:25:35;87775.47;;;-143.16;61.58
14885;BME280;7534;50.762;7.000;2023-04-01T12:28:44;87787.59;;;-143.16;60.31
14885;BME280;7534;50.762;7.000;2023-04-01T12:37:36;87749.25;;;-143.16;58.90
14885;BME280;7534;50.762;7.000;2023-04-01T12:43:48;87874.38;;;-143.16;59.72
14885;BME280;7534;50.762;7.000;2023-04-01T12:47:00;87920.81;;;-143.16;60.92
14885;BME280;7534;50.762;7.000;2023-04-01T12:55:38;87747.22;;;-143.16;60.53
14885;BME280;7534;50.762;7.000;2023-04-01T13:02:30;87777.50;;;-143.16;61.35
14885;BME280;7534;50.762;7.000;2023-04-01T13:05:57;87795.66;;;-143.16;60.67
14885;BME280;7534;50.762;7.000;2023-04-01T13:11:57;87825.94;;;-143.16;62.71
14885;BME280;7534;50.762;7.000;2023-04-01T13:14:44;87821.91;;;-143.16;61.54
14885;BME280;7534;50.762;7.000;2023-04-01T13:19:58;87727.03;;;-143.16;60.82
14885;BME280;7534;50.762;7.000;2023-04-01T13:25:41;87767.41;;;-143.16;59.16
14885;BME280;7534;50.762;7.000;2023-04-01T13:30:47;87656.41;;;-143.16;58.76
14885;BME280;7534;50.762;7.000;2023-04-01T13:33:42;87626.13;;;-143.16;57.23
14885;BME280;7534;50.762;7.000;2023-04-01T13:36:32;87561.53;;;-143.16;55.06
14885;BME280;7534;50.762;7.000;2023-04-01T13:42:44;87630.16;;;-143.16;55.78
14885;BME280;7534;50.762;7.000;2023-04-01T13:45:24;87672.53;;;-143.16;57.00
14885;BME280;7534;50.762;7.000;2023-04-01T13:54:08;87759.34;;;-143.16;58.48
14885;BME280;7534;50.762;7.000;2023-04-01T13:57:14;87676.59;;;-143.16;58.73
14885;BME280;7534;50.762;7.000;2023-04-01T14:05:53;87601.91;;;-143.16;55.40
14885;BME280;7534;50.762;7.000;2023-04-01T14:09:19;87563.56;;;-143.16;55.71
14885;BME280;7534;50.762;7.000;2023-04-01T14:21:11;87704.84;;;-143.16;57.48
14885;BME280;7534;50.762;7.000;2023-04-01T14:27:16;87779.53;;;-143.16;59.16
14885;BME280;7534;50.762;7.000;2023-04-01T14:30:25;87755.31;;;-143.16;58.63
14885;BME280;7534;50.762;7.000;2023-04-01T14:33:32;87755.31;;;-143.16;56.52
14885;BME280;7534;50.762;7.000;2023-04-01T14:36:43;87723.00;;;-143.16;57.17
14885;BME280;7534;50.762;7.000;2023-04-01T14:39:55;87761.34;;;-143.16;57.54
14885;BME280;7534;50.762;7.000;2023-04-01T14:51:08;87666.50;;;-143.16;54.97
14885;BME280;7534;50.762;7.000;2023-04-01T14:53:43;87751.25;;;-143.16;57.16
14885;BME280;7534;50.762;7.000;2023-04-01T14:56:12;87731.06;;;-143.16;57.17
14885;BME280;7534;50.762;7.000;2023-04-01T14:58:49;87694.75;;;-143.16;57.00
14885;BME280;7534;50.762;7.000;2023-04-01T15:02:42;87757.31;;;-143.16;56.92
14885;BME280;7534;50.762;7.000;2023-04-01T15:04:58;87751.25;;;-143.16;58.18
14885;BME280;7534;50.762;7.000;2023-04-01T15:13:13;87773.47;;;-143.16;57.37
14885;BME280;7534;50.762;7.000;2023-04-01T15:16:15;87751.25;;;-143.16;57.95
14885;BME280;7534;50.762;7.000;2023-04-01T15:19:39;87801.72;;;-143.16;58.85
14885;BME280;7534;50.762;7.000;2023-04-01T15:25:33;87801.72;;;-143.16;60.27
14885;BME280;7534;50.762;7.000;2023-04-01T15:27:44;87858.25;;;-143.16;60.81
14885;BME280;7534;50.762;7.000;2023-04-01T15:30:25;87904.66;;;-143.16;61.65
14885;BME280;7534;50.762;7.000;2023-04-01T15:33:17;87878.41;;;-143.16;62.44
14885;BME280;7534;50.762;7.000;2023-04-01T15:42:19;87844.09;;;-143.16;62.93
14885;BME280;7534;50.762;7.000;2023-04-01T15:44:55;87934.94;;;-143.16;62.96
14885;BME280;7534;50.762;7.000;2023-04-01T15:55:37;87902.66;;;-143.16;65.69
14885;BME280;7534;50.762;7.000;2023-04-01T16:04:27;87967.25;;;-143.16;67.40
14885;BME280;7534;50.762;7.000;2023-04-01T16:10:49;87926.88;;;-143.16;68.50
14885;BME280;7534;50.762;7.000;2023-04-01T16:16:47;87920.81;;;-143.16;67.18
14885;BME280;7534;50.762;7.000;2023-04-01T16:19:40;87993.47;;;-143.16;67.44
14885;BME280;7534;50.762;7.000;2023-04-01T16:23:16;87914.75;;;-143.16;66.92
14885;BME280;7534;50.762;7.000;2023-04-01T16:25:43;87926.88;;;-143.16;68.30
14885;BME280;7534;50.762;7.000;2023-04-01T16:28:47;87941.00;;;-143.16;66.51
14885;BME280;7534;50.762;7.000;2023-04-01T16:31:27;87947.06;;;-143.16;68.02
14885;BME280;7534;50.762;7.000;2023-04-01T16:34:54;87910.72;;;-143.16;67.74
14885;BME280;7534;50.762;7.000;2023-04-01T16:37:38;87961.19;;;-143.16;68.55
14885;BME280;7534;50.762;7.000;2023-04-01T16:46:12;87999.53;;;-143.16;69.25
14885;BME280;7534;50.762;7.000;2023-04-01T16:48:57;88003.56;;;-143.16;69.97
14885;BME280;7534;50.762;7.000;2023-04-01T16:51:35;88027.78;;;-143.16;70.08
14885;BME280;7534;50.762;7.000;2023-04-01T16:54:26;88007.59;;;-143.16;70.45
14885;BME280;7534;50.762;7.000;2023-04-01T16:59:47;88035.88;;;-143.16;71.19
14885;BME280;7534;50.762;7.000;2023-04-01T17:02:23;88064.13;;;-143.16;70.69
14885;BME280;7534;50.762;7.000;2023-04-01T17:05:08;88074.22;;;-143.16;71.56
14885;BME280;7534;50.762;7.000;2023-04-01T17:11:04;88062.13;;;-143.16;72.89
14885;BME280;7534;50.762;7.000;2023-04-01T17:22:49;88126.72;;;-143.16;73.85
14885;BME280;7534;50.762;7.000;2023-04-01T17:28:50;88114.59;;;-143.16;74.01
14885;BME280;7534;50.762;7.000;2023-04-01T17:31:45;88124.69;;;-143.16;73.53
14885;BME280;7534;50.762;7.000;2023-04-01T17:46:27;88181.22;;;-143.16;74.55
14885;BME280;7534;50.762;7.000;2023-04-01T17:54:38;88185.25;;;-143.16;73.95
14885;BME280;7534;50.762;7.000;2023-04-01T18:00:18;88161.03;;;-143.16;75.19
14885;BME280;7534;50.762;7.000;2023-04-01T18:03:25;88134.78;;;-143.16;75.17
14885;BME280;7534;50.762;7.000;2023-04-01T18:10:12;88154.97;;;-143.16;74.32
14885;BME280;7534;50.762;7.000;2023-04-01T18:15:41;88185.25;;;-143.16;74.85
14885;BME280;7534;50.762;7.000;2023-04-01T18:18:53;88201.41;;;-143.16;74.19
14885;BME280;7534;50.762;7.000;2023-04-01T18:21:46;88161.03;;;-143.16;74.70
14885;BME280;7534;50.762;7.000;2023-04-01T18:24:18;88189.28;;;-143.16;74.87
14885;BME280;7534;50.762;7.000;2023-04-01T18:27:15;88211.50;;;-143.16;74.33
14885;BME280;7534;50.762;7.000;2023-04-01T18:30:15;88169.09;;;-143.16;74.61
14885;BME280;7534;50.762;7.000;2023-04-01T18:32:58;88193.31;;;-143.16;74.61
14885;BME280;7534;50.762;7.000;2023-04-01T18:35:52;88211.50;;;-143.16;74.80
14885;BME280;7534;50.762;7.000;2023-04-01T18:38:35;88191.31;;;-143.16;74.43
14885;BME280;7534;50.762;7.000;2023-04-01T18:41:35;88211.50;;;-143.16;74.82
14885;BME280;7534;50.762;7.000;2023-04-01T18:44:50;88173.13;;;-143.16;75.21
14885;BME280;7534;50.762;7.000;2023-04-01T18:47:43;88231.69;;;-143.16;75.94
14885;BME280;7534;50.762;7.000;2023-04-01T18:50:37;88197.34;;;-143.16;76.46
14885;BME280;7534;50.762;7.000;2023-04-01T18:53:34;88243.78;;;-143.16;77.01
14885;BME280;7534;50.762;7.000;2023-04-01T18:56:23;88223.59;;;-143.16;77.16
14885;BME280;7534;50.762;7.000;2023-04-01T18:59:20;88272.06;;;-143.16;77.14
14885;BME280;7534;50.762;7.000;2023-04-01T19:01:55;88278.09;;;-143.16;77.09
14885;BME280;7534;50.762;7.000;2023-04-01T19:04:50;88251.88;;;-143.16;77.25
14885;BME280;7534;50.762;7.000;2023-04-01T19:07:53;88213.50;;;-143.16;77.17
14885;BME280;7534;50.762;7.000;2023-04-01T19:11:03;88209.47;;;-143.16;77.73
14885;BME280;7534;50.762;7.000;2023-04-01T19:17:22;88257.91;;;-143.16;77.53
14885;BME280;7534;50.762;7.000;2023-04-01T19:20:18;88253.88;;;-143.16;77.47
14885;BME280;7534;50.762;7.000;2023-04-01T19:23:31;88247.81;;;-143.16;78.11
14885;BME280;7534;50.762;7.000;2023-04-01T19:26:13;88233.69;;;-143.16;78.90
14885;BME280;7534;50.762;7.000;2023-04-01T19:29:25;88235.72;;;-143.16;79.29
14885;BME280;7534;50.762;7.000;2023-04-01T19:32:16;88235.72;;;-143.16;79.06
14885;BME280;7534;50.762;7.000;2023-04-01T19:35:26;88263.97;;;-143.16;79.15
14885;BME280;7534;50.762;7.000;2023-04-01T19:38:38;88201.41;;;-143.16;79.31
14885;BME280;7534;50.762;7.000;2023-04-01T19:41:28;88286.19;;;-143.16;78.97
14885;BME280;7534;50.762;7.000;2023-04-01T19:44:16;88197.34;;;-143.16;78.29
14885;BME280;7534;50.762;7.000;2023-04-01T19:50:14;88213.50;;;-143.16;78.27
14885;BME280;7534;50.762;7.000;2023-04-01T19:52:47;88197.34;;;-143.16;78.64